createdAt,value
2019-05-29T00:02:06.185Z,11.06
2019-05-29T00:04:36.243Z,11.06
2019-05-29T00:07:06.177Z,11.07
2019-05-29T00:09:36.150Z,11.05
2019-05-29T00:12:08.338Z,10.99
2019-05-29T00:14:38.902Z,11.02
2019-05-29T00:17:08.873Z,11.03
2019-05-29T00:19:38.688Z,10.99
2019-05-29T00:22:09.019Z,10.94
2019-05-29T00:24:38.869Z,10.83
2019-05-29T00:27:12.591Z,10.82
2019-05-29T00:29:40.289Z,10.76
2019-05-29T00:32:11.906Z,10.74
2019-05-29T00:34:42.035Z,10.72
2019-05-29T00:37:12.511Z,10.69
2019-05-29T00:39:42.631Z,10.67
2019-05-29T00:42:13.261Z,10.64
2019-05-29T00:44:44.780Z,10.66
2019-05-29T00:47:15.677Z,10.67
2019-05-29T00:49:45.688Z,10.66
2019-05-29T00:52:16.595Z,10.64
2019-05-29T00:54:46.556Z,10.62
2019-05-29T00:57:17.105Z,10.56
2019-05-29T00:59:48.269Z,10.47
2019-05-29T01:02:18.291Z,10.44
2019-05-29T01:04:48.409Z,10.39
2019-05-29T01:07:18.735Z,10.38
2019-05-29T01:09:48.503Z,10.32
2019-05-29T01:12:19.446Z,10.24
2019-05-29T01:14:50.747Z,10.22
2019-05-29T01:17:21.861Z,10.22
2019-05-29T01:19:52.738Z,10.20
2019-05-29T01:22:22.587Z,10.15
2019-05-29T01:24:53.821Z,10.11
2019-05-29T01:27:23.829Z,9.93
2019-05-29T01:29:54.096Z,10.02
2019-05-29T01:32:24.409Z,9.97
2019-05-29T01:34:54.624Z,9.92
2019-05-29T01:37:26.373Z,9.87
2019-05-29T01:39:56.407Z,9.84
2019-05-29T01:42:27.647Z,9.80
2019-05-29T01:45:07.813Z,9.75
2019-05-29T01:47:29.722Z,9.70
2019-05-29T01:49:59.834Z,9.67
2019-05-29T01:52:29.872Z,9.60
2019-05-29T01:54:59.726Z,9.58
2019-05-29T01:57:30.499Z,9.56
2019-05-29T02:00:00.415Z,9.52
2019-05-29T02:02:30.716Z,9.42
2019-05-29T02:05:00.700Z,9.39
2019-05-29T02:07:30.943Z,9.35
2019-05-29T02:10:00.920Z,9.34
2019-05-29T02:12:49.921Z,9.32
2019-05-29T02:15:28.784Z,9.28
2019-05-29T02:17:51.996Z,9.31
2019-05-29T02:20:23.148Z,9.30
2019-05-29T02:22:54.288Z,9.27
2019-05-29T02:25:24.428Z,9.26
2019-05-29T02:27:54.383Z,9.22
2019-05-29T02:30:27.498Z,9.19
2019-05-29T02:32:56.232Z,9.18
2019-05-29T02:35:27.449Z,9.19
2019-05-29T02:37:57.889Z,9.21
2019-05-29T02:40:29.834Z,9.20
2019-05-29T02:42:59.767Z,9.17
2019-05-29T02:45:50.340Z,9.13
2019-05-29T02:48:01.319Z,9.12
2019-05-29T02:50:31.398Z,8.88
2019-05-29T02:53:01.332Z,9.03
2019-05-29T02:55:31.390Z,9.00
2019-05-29T02:58:01.338Z,8.91
2019-05-29T03:00:52.706Z,8.87
2019-05-29T03:03:26.147Z,8.86
2019-05-29T03:05:56.105Z,8.85
2019-05-29T03:08:27.293Z,8.83
2019-05-29T03:10:57.996Z,8.78
2019-05-29T03:13:29.835Z,8.80
2019-05-29T03:16:10.714Z,8.79
2019-05-29T03:18:32.535Z,8.74
2019-05-29T03:21:02.715Z,8.73
2019-05-29T03:23:35.193Z,8.72
2019-05-29T03:26:04.579Z,8.73
2019-05-29T03:28:35.208Z,8.73
2019-05-29T03:31:05.644Z,8.72
2019-05-29T03:33:47.120Z,8.74
2019-05-29T03:36:07.241Z,8.71
2019-05-29T03:38:38.609Z,8.71
2019-05-29T03:41:08.889Z,8.71
2019-05-29T03:43:38.909Z,8.70
2019-05-29T03:46:28.715Z,8.75
2019-05-29T03:48:41.074Z,8.76
2019-05-29T03:51:11.016Z,8.77
2019-05-29T03:53:40.924Z,8.80
2019-05-29T03:56:10.921Z,8.79
2019-05-29T03:58:40.925Z,8.80
2019-05-29T04:01:11.456Z,8.81
2019-05-29T04:03:41.568Z,8.84
2019-05-29T04:06:11.521Z,8.84
2019-05-29T04:08:41.469Z,8.88
2019-05-29T04:11:11.479Z,8.92
2019-05-29T04:13:41.470Z,8.97
2019-05-29T04:16:12.156Z,9.02
2019-05-29T04:18:42.509Z,9.07
2019-05-29T04:21:14.319Z,9.05
2019-05-29T04:23:45.746Z,9.09
2019-05-29T04:26:17.894Z,9.13
2019-05-29T04:28:49.255Z,9.16
2019-05-29T04:31:19.297Z,9.13
2019-05-29T04:33:49.221Z,9.12
2019-05-29T04:36:19.185Z,9.08
2019-05-29T04:38:49.121Z,9.23
2019-05-29T04:41:20.231Z,9.31
2019-05-29T04:43:50.152Z,9.37
2019-05-29T04:46:20.023Z,9.40
2019-05-29T04:48:49.952Z,9.48
2019-05-29T04:51:19.803Z,9.52
2019-05-29T04:53:50.029Z,9.56
2019-05-29T04:56:19.973Z,9.67
2019-05-29T04:58:50.140Z,10.22
2019-05-29T05:01:23.000Z,12.33
2019-05-29T05:03:53.200Z,14.63
2019-05-29T05:06:23.091Z,16.60
2019-05-29T05:08:53.826Z,17.89
2019-05-29T05:11:24.788Z,18.88
2019-05-29T05:13:55.191Z,19.65
2019-05-29T05:16:25.113Z,20.49
2019-05-29T05:18:55.402Z,21.02
2019-05-29T05:21:26.018Z,21.49
2019-05-29T05:23:56.050Z,21.98
2019-05-29T05:26:26.014Z,22.22
2019-05-29T05:28:56.282Z,22.56
2019-05-29T05:31:26.294Z,23.06
2019-05-29T05:33:56.560Z,23.58
2019-05-29T05:36:26.674Z,23.81
2019-05-29T05:38:56.725Z,23.50
2019-05-29T05:41:27.547Z,23.61
2019-05-29T05:43:57.464Z,23.94
2019-05-29T05:46:27.649Z,24.00
2019-05-29T05:48:57.766Z,23.95
2019-05-29T05:51:27.729Z,23.70
2019-05-29T05:53:57.629Z,23.53
2019-05-29T05:56:27.615Z,23.58
2019-05-29T05:58:57.510Z,23.89
2019-05-29T06:01:27.493Z,23.39
2019-05-29T06:03:58.367Z,23.23
2019-05-29T06:06:28.282Z,23.65
2019-05-29T06:08:58.276Z,24.02
2019-05-29T06:11:28.089Z,24.13
2019-05-29T06:13:58.056Z,23.84
2019-05-29T06:16:28.034Z,23.89
2019-05-29T06:18:57.786Z,23.98
2019-05-29T06:21:27.701Z,23.12
2019-05-29T06:23:58.016Z,21.98
2019-05-29T06:26:28.320Z,21.91
2019-05-29T06:28:58.731Z,21.44
2019-05-29T06:31:28.791Z,20.52
2019-05-29T06:33:58.614Z,20.29
2019-05-29T06:36:28.514Z,20.65
2019-05-29T06:38:58.738Z,20.51
2019-05-29T06:41:29.006Z,20.12
2019-05-29T06:43:59.611Z,19.89
2019-05-29T06:46:29.629Z,19.08
2019-05-29T06:49:00.983Z,18.08
2019-05-29T06:51:31.341Z,17.79
2019-05-29T06:54:01.236Z,17.79
2019-05-29T06:56:31.202Z,17.47
2019-05-29T06:59:01.390Z,16.69
2019-05-29T07:01:32.818Z,16.06
2019-05-29T07:04:11.967Z,15.72
2019-05-29T07:06:34.361Z,15.90
2019-05-29T07:09:05.633Z,16.27
2019-05-29T07:11:35.492Z,16.75
2019-05-29T07:14:06.781Z,16.33
2019-05-29T07:16:46.347Z,16.16
2019-05-29T07:19:25.212Z,16.18
2019-05-29T07:21:40.857Z,16.28
2019-05-29T07:24:10.887Z,15.98
2019-05-29T07:26:41.105Z,15.98
2019-05-29T07:29:11.342Z,15.94
2019-05-29T07:31:41.255Z,16.18
2019-05-29T07:34:11.278Z,16.23
2019-05-29T07:36:41.946Z,16.01
2019-05-29T07:39:11.872Z,15.85
2019-05-29T07:41:41.917Z,15.64
2019-05-29T07:44:11.955Z,15.61
2019-05-29T07:46:42.255Z,15.68
2019-05-29T07:49:12.221Z,15.52
2019-05-29T07:51:43.704Z,15.51
2019-05-29T07:54:14.648Z,15.71
2019-05-29T07:56:44.734Z,16.06
2019-05-29T07:59:14.794Z,16.03
2019-05-29T08:01:46.929Z,16.09
2019-05-29T08:04:17.345Z,15.72
2019-05-29T08:06:52.329Z,15.77
2019-05-29T08:09:19.178Z,15.94
2019-05-29T08:11:50.153Z,16.07
2019-05-29T08:14:21.051Z,15.79
2019-05-29T08:16:51.036Z,15.97
2019-05-29T08:19:21.256Z,15.91
2019-05-29T08:21:51.370Z,15.73
2019-05-29T08:24:24.695Z,15.58
2019-05-29T08:26:53.617Z,15.58
2019-05-29T08:29:23.613Z,15.90
2019-05-29T08:31:53.609Z,16.18
2019-05-29T08:34:23.774Z,16.42
2019-05-29T08:37:04.770Z,16.31
2019-05-29T08:39:36.025Z,16.09
2019-05-29T08:42:21.313Z,16.04
2019-05-29T08:44:29.909Z,16.20
2019-05-29T08:47:09.422Z,16.04
2019-05-29T08:49:31.592Z,15.91
2019-05-29T08:52:11.339Z,15.81
2019-05-29T08:54:33.254Z,15.68
2019-05-29T08:57:04.596Z,15.77
2019-05-29T08:59:34.451Z,16.03
2019-05-29T09:02:05.849Z,16.36
2019-05-29T09:04:35.871Z,16.51
2019-05-29T09:07:05.783Z,16.43
2019-05-29T09:09:35.725Z,16.26
2019-05-29T09:12:06.098Z,16.12
2019-05-29T09:14:36.022Z,16.18
2019-05-29T09:17:06.804Z,15.84
2019-05-29T09:19:36.920Z,15.69
2019-05-29T09:22:06.947Z,15.65
2019-05-29T09:24:36.878Z,15.72
2019-05-29T09:27:06.933Z,15.88
2019-05-29T09:29:37.193Z,15.61
2019-05-29T09:32:07.313Z,15.84
2019-05-29T09:34:37.410Z,15.77
2019-05-29T09:37:07.488Z,15.67
2019-05-29T09:39:37.541Z,15.96
2019-05-29T09:42:07.571Z,16.34
2019-05-29T09:44:40.090Z,16.61
2019-05-29T09:47:10.227Z,17.33
2019-05-29T09:49:40.573Z,17.77
2019-05-29T09:52:11.082Z,17.72
2019-05-29T09:54:41.267Z,17.68
2019-05-29T09:57:15.253Z,17.35
2019-05-29T09:59:43.506Z,17.09
2019-05-29T10:02:13.962Z,17.08
2019-05-29T10:04:43.974Z,17.33
2019-05-29T10:07:13.947Z,17.33
2019-05-29T10:09:43.881Z,17.32
2019-05-29T10:12:13.965Z,17.17
2019-05-29T10:14:45.110Z,16.98
2019-05-29T10:17:15.294Z,17.20
2019-05-29T10:19:45.783Z,17.52
2019-05-29T10:22:15.700Z,17.86
2019-05-29T10:24:45.652Z,17.99
2019-05-29T10:27:16.005Z,18.01
2019-05-29T10:29:48.815Z,17.85
2019-05-29T10:32:17.915Z,18.00
2019-05-29T10:34:48.492Z,17.98
2019-05-29T10:37:18.720Z,18.20
2019-05-29T10:39:49.164Z,18.27
2019-05-29T10:42:20.682Z,18.03
2019-05-29T10:44:51.259Z,17.51
2019-05-29T10:47:21.334Z,17.30
2019-05-29T10:49:51.773Z,17.46
2019-05-29T10:52:21.671Z,17.64
2019-05-29T10:54:52.449Z,17.62
2019-05-29T10:57:22.572Z,17.54
2019-05-29T10:59:52.889Z,17.31
2019-05-29T11:02:23.155Z,17.61
2019-05-29T11:04:56.672Z,17.96
2019-05-29T11:07:25.029Z,17.94
2019-05-29T11:09:56.155Z,18.13
2019-05-29T11:12:26.283Z,18.38
2019-05-29T11:14:57.131Z,18.38
2019-05-29T11:17:27.388Z,18.47
2019-05-29T11:19:58.239Z,18.65
2019-05-29T11:22:28.561Z,18.61
2019-05-29T11:25:20.622Z,18.30
2019-05-29T11:27:30.857Z,18.36
2019-05-29T11:30:00.832Z,18.54
2019-05-29T11:32:31.948Z,18.67
2019-05-29T11:35:02.362Z,18.45
2019-05-29T11:37:32.618Z,18.35
2019-05-29T11:40:03.367Z,18.14
2019-05-29T11:42:35.701Z,17.92
2019-05-29T11:45:06.900Z,17.66
2019-05-29T11:47:36.764Z,17.65
2019-05-29T11:50:19.262Z,17.58
2019-05-29T11:52:44.676Z,17.42
2019-05-29T11:55:15.435Z,17.45
2019-05-29T11:57:45.768Z,17.24
2019-05-29T12:00:20.406Z,17.13
2019-05-29T12:02:48.071Z,17.37
2019-05-29T12:05:19.062Z,17.52
2019-05-29T12:07:51.235Z,17.60
2019-05-29T12:10:23.199Z,17.68
2019-05-29T12:12:53.495Z,17.73
2019-05-29T12:15:23.945Z,17.65
2019-05-29T12:17:57.937Z,17.83
2019-05-29T12:20:28.828Z,18.06
2019-05-29T12:23:18.659Z,18.13
2019-05-29T12:25:29.675Z,18.31
2019-05-29T12:28:01.211Z,18.18
2019-05-29T12:30:32.036Z,18.27
2019-05-29T12:33:01.820Z,18.18
2019-05-29T12:35:34.479Z,18.37
2019-05-29T12:38:04.928Z,18.46
2019-05-29T12:40:34.902Z,17.94
2019-05-29T12:43:04.944Z,17.97
2019-05-29T12:45:34.862Z,18.22
2019-05-29T12:48:12.287Z,18.70
2019-05-29T12:50:36.744Z,18.53
2019-05-29T12:53:07.121Z,18.59
2019-05-29T12:55:37.036Z,18.78
2019-05-29T12:58:07.154Z,18.81
2019-05-29T13:00:37.168Z,18.76
2019-05-29T13:03:07.148Z,18.78
2019-05-29T13:05:39.772Z,18.52
2019-05-29T13:08:09.651Z,18.30
2019-05-29T13:10:40.218Z,18.33
2019-05-29T13:13:11.270Z,18.54
2019-05-29T13:15:42.006Z,18.58
2019-05-29T13:18:11.938Z,18.50
2019-05-29T13:20:41.806Z,18.50
2019-05-29T13:23:11.782Z,18.51
2019-05-29T13:25:41.673Z,18.51
2019-05-29T13:28:11.733Z,18.23
2019-05-29T13:30:42.071Z,18.40
2019-05-29T13:33:12.143Z,18.52
2019-05-29T13:35:42.564Z,18.41
2019-05-29T13:38:13.227Z,18.06
2019-05-29T13:40:43.433Z,17.78
2019-05-29T13:43:15.733Z,17.54
2019-05-29T13:45:45.517Z,17.26
2019-05-29T13:48:15.432Z,17.20
2019-05-29T13:50:48.730Z,17.27
2019-05-29T13:53:17.606Z,17.24
2019-05-29T13:55:47.571Z,17.25
2019-05-29T13:58:17.597Z,17.22
2019-05-29T14:00:47.576Z,17.14
2019-05-29T14:03:17.546Z,17.21
2019-05-29T14:05:47.458Z,17.33
2019-05-29T14:08:17.393Z,17.40
2019-05-29T14:10:47.290Z,17.78
2019-05-29T14:13:17.644Z,18.19
2019-05-29T14:15:47.453Z,18.37
2019-05-29T14:18:17.440Z,18.68
2019-05-29T14:20:47.288Z,18.86
2019-05-29T14:23:17.222Z,19.04
2019-05-29T14:25:47.136Z,18.87
2019-05-29T14:28:17.548Z,19.09
2019-05-29T14:30:47.776Z,19.39
2019-05-29T14:33:17.747Z,19.31
2019-05-29T14:35:47.694Z,19.24
2019-05-29T14:38:18.553Z,19.15
2019-05-29T14:40:48.470Z,19.30
2019-05-29T14:43:18.439Z,19.23
2019-05-29T14:45:48.282Z,19.11
2019-05-29T14:48:18.210Z,19.02
2019-05-29T14:50:48.096Z,19.00
2019-05-29T14:53:18.075Z,18.90
2019-05-29T14:55:48.232Z,18.87
2019-05-29T14:58:18.033Z,18.97
2019-05-29T15:00:48.100Z,19.33
2019-05-29T15:03:18.086Z,19.63
2019-05-29T15:05:47.973Z,19.67
2019-05-29T15:08:17.988Z,19.75
2019-05-29T15:10:47.939Z,19.94
2019-05-29T15:13:17.741Z,19.84
2019-05-29T15:15:47.996Z,19.48
2019-05-29T15:18:19.172Z,19.39
2019-05-29T15:20:49.227Z,19.39
2019-05-29T15:23:20.199Z,19.37
2019-05-29T15:25:50.510Z,19.24
2019-05-29T15:28:20.521Z,19.24
2019-05-29T15:30:50.812Z,19.25
2019-05-29T15:33:21.563Z,19.41
2019-05-29T15:35:51.822Z,19.52
2019-05-29T15:38:23.151Z,19.66
2019-05-29T15:40:53.337Z,19.56
2019-05-29T15:43:23.414Z,19.31
2019-05-29T15:45:53.302Z,18.98
2019-05-29T15:48:23.555Z,18.60
2019-05-29T15:50:53.541Z,17.96
2019-05-29T15:53:23.712Z,17.74
2019-05-29T15:55:53.784Z,17.86
2019-05-29T15:58:23.759Z,17.92
2019-05-29T16:00:53.614Z,18.17
2019-05-29T16:03:23.899Z,18.28
2019-05-29T16:05:53.746Z,18.37
2019-05-29T16:08:23.944Z,18.28
2019-05-29T16:10:53.920Z,18.27
2019-05-29T16:13:24.326Z,18.36
2019-05-29T16:15:54.249Z,18.32
2019-05-29T16:18:29.070Z,18.35
2019-05-29T16:20:56.296Z,18.32
2019-05-29T16:23:35.199Z,18.38
2019-05-29T16:25:59.171Z,18.29
2019-05-29T16:28:29.362Z,18.29
2019-05-29T16:30:59.561Z,18.41
2019-05-29T16:33:31.295Z,18.50
2019-05-29T16:36:01.355Z,18.44
2019-05-29T16:38:31.427Z,18.29
2019-05-29T16:41:01.211Z,18.23
2019-05-29T16:43:34.406Z,18.22
2019-05-29T16:46:06.261Z,18.17
2019-05-29T16:48:36.748Z,18.08
2019-05-29T16:51:07.104Z,17.97
2019-05-29T16:53:37.305Z,17.84
2019-05-29T16:56:07.368Z,17.85
2019-05-29T16:58:37.223Z,17.94
2019-05-29T17:01:07.244Z,17.97
2019-05-29T17:03:37.805Z,17.99
2019-05-29T17:06:08.519Z,17.91
2019-05-29T17:08:38.570Z,17.83
2019-05-29T17:11:08.854Z,17.82
2019-05-29T17:13:38.874Z,17.78
2019-05-29T17:16:08.851Z,17.75
2019-05-29T17:18:39.245Z,17.66
2019-05-29T17:21:09.367Z,17.50
2019-05-29T17:23:39.563Z,17.34
2019-05-29T17:26:11.320Z,17.25
2019-05-29T17:28:41.887Z,17.16
2019-05-29T17:31:11.975Z,17.11
2019-05-29T17:33:42.324Z,17.06
2019-05-29T17:36:12.616Z,17.03
2019-05-29T17:38:42.960Z,16.89
2019-05-29T17:41:12.945Z,17.06
2019-05-29T17:43:42.909Z,17.03
2019-05-29T17:46:12.990Z,16.96
2019-05-29T17:48:43.560Z,16.93
2019-05-29T17:51:13.894Z,16.88
2019-05-29T17:53:44.311Z,16.85
2019-05-29T17:56:26.373Z,16.78
2019-05-29T17:58:46.344Z,16.73
2019-05-29T18:01:18.131Z,16.71
2019-05-29T18:03:53.072Z,16.66
2019-05-29T18:06:24.519Z,16.61
2019-05-29T18:08:54.439Z,16.62
2019-05-29T18:11:25.226Z,16.60
2019-05-29T18:13:56.371Z,16.63
2019-05-29T18:16:27.680Z,16.62
2019-05-29T18:18:59.069Z,16.56
2019-05-29T18:21:29.369Z,16.51
2019-05-29T18:23:59.484Z,16.50
2019-05-29T18:26:46.274Z,16.47
2019-05-29T18:29:01.748Z,16.40
2019-05-29T18:31:31.774Z,16.39
2019-05-29T18:34:02.138Z,16.35
2019-05-29T18:36:36.813Z,16.32
2019-05-29T18:39:08.441Z,16.32
2019-05-29T18:41:39.515Z,16.29
2019-05-29T18:44:09.743Z,16.26
2019-05-29T18:46:39.632Z,16.21
2019-05-29T18:49:14.397Z,16.17
2019-05-29T18:51:41.632Z,16.14
2019-05-29T18:54:11.679Z,16.08
2019-05-29T18:56:41.584Z,16.02
2019-05-29T18:59:11.745Z,15.99
2019-05-29T19:01:44.913Z,15.96
2019-05-29T19:04:14.929Z,15.92
2019-05-29T19:06:44.797Z,15.88
2019-05-29T19:09:14.858Z,15.85
2019-05-29T19:11:45.312Z,15.82
2019-05-29T19:14:15.736Z,15.77
2019-05-29T19:16:46.847Z,15.75
2019-05-29T19:19:16.795Z,15.72
2019-05-29T19:21:46.873Z,15.69
2019-05-29T19:24:16.861Z,15.67
2019-05-29T19:26:46.800Z,15.61
2019-05-29T19:29:17.125Z,15.54
2019-05-29T19:31:47.196Z,15.49
2019-05-29T19:34:17.160Z,15.45
2019-05-29T19:36:47.014Z,15.41
2019-05-29T19:39:17.533Z,15.37
2019-05-29T19:41:47.633Z,15.33
2019-05-29T19:44:17.704Z,15.31
2019-05-29T19:46:53.555Z,15.22
2019-05-29T19:49:19.390Z,15.16
2019-05-29T19:51:49.511Z,15.09
2019-05-29T19:54:19.479Z,15.05
2019-05-29T19:56:50.003Z,15.00
2019-05-29T19:59:20.441Z,14.92
2019-05-29T20:01:50.340Z,14.89
2019-05-29T20:04:20.268Z,14.85
2019-05-29T20:06:50.272Z,14.79
2019-05-29T20:09:20.175Z,14.73
2019-05-29T20:11:50.317Z,14.66
2019-05-29T20:14:20.688Z,14.61
2019-05-29T20:16:50.663Z,14.57
2019-05-29T20:19:20.597Z,14.52
2019-05-29T20:21:50.485Z,14.46
2019-05-29T20:24:20.737Z,14.43
2019-05-29T20:26:50.760Z,14.37
2019-05-29T20:29:20.597Z,14.33
2019-05-29T20:31:50.627Z,14.30
2019-05-29T20:34:20.685Z,14.25
2019-05-29T20:36:50.612Z,14.23
2019-05-29T20:39:20.966Z,14.18
2019-05-29T20:41:50.854Z,14.12
2019-05-29T20:44:21.034Z,14.08
2019-05-29T20:46:50.948Z,14.05
2019-05-29T20:49:21.041Z,14.00
2019-05-29T20:51:51.753Z,13.94
2019-05-29T20:54:21.861Z,13.91
2019-05-29T20:56:52.009Z,13.87
2019-05-29T20:59:21.900Z,13.83
2019-05-29T21:01:51.943Z,13.81
2019-05-29T21:04:21.968Z,13.79
2019-05-29T21:06:51.903Z,13.76
2019-05-29T21:09:22.269Z,13.71
2019-05-29T21:11:52.158Z,13.70
2019-05-29T21:14:22.274Z,13.68
2019-05-29T21:16:52.477Z,13.65
2019-05-29T21:19:22.813Z,13.65
2019-05-29T21:21:52.742Z,13.63
2019-05-29T21:24:22.721Z,13.59
2019-05-29T21:26:53.275Z,13.55
2019-05-29T21:29:23.162Z,13.53
2019-05-29T21:31:53.627Z,13.49
2019-05-29T21:34:23.739Z,13.45
2019-05-29T21:36:53.590Z,13.39
2019-05-29T21:39:23.542Z,13.36
2019-05-29T21:41:53.450Z,13.34
2019-05-29T21:44:23.319Z,13.30
2019-05-29T21:46:53.117Z,13.27
2019-05-29T21:49:23.034Z,13.25
2019-05-29T21:51:53.076Z,13.22
2019-05-29T21:54:22.912Z,13.19
2019-05-29T21:56:52.800Z,13.16
2019-05-29T21:59:22.996Z,13.13
2019-05-29T22:01:53.626Z,13.12
2019-05-29T22:04:23.831Z,13.12
2019-05-29T22:06:53.710Z,13.11
2019-05-29T22:09:23.977Z,13.08
2019-05-29T22:11:56.316Z,13.06
2019-05-29T22:14:27.966Z,13.07
2019-05-29T22:16:59.139Z,13.04
2019-05-29T22:19:29.286Z,12.98
2019-05-29T22:22:01.313Z,12.92
2019-05-29T22:24:31.845Z,12.92
2019-05-29T22:27:02.086Z,12.87
2019-05-29T22:29:33.295Z,12.79
2019-05-29T22:32:03.233Z,12.80
2019-05-29T22:34:33.506Z,12.77
2019-05-29T22:37:03.804Z,12.74
2019-05-29T22:39:33.618Z,12.72
2019-05-29T22:42:04.231Z,12.71
2019-05-29T22:44:34.194Z,12.66
2019-05-29T22:47:04.643Z,12.65
2019-05-29T22:49:35.151Z,12.66
2019-05-29T22:52:06.052Z,12.63
2019-05-29T22:54:36.988Z,12.63
2019-05-29T22:57:06.984Z,12.63
2019-05-29T22:59:37.129Z,12.61
2019-05-29T23:02:07.974Z,12.57
2019-05-29T23:04:39.377Z,12.53
2019-05-29T23:07:09.414Z,12.48
2019-05-29T23:09:39.438Z,12.48
2019-05-29T23:12:09.407Z,12.45
2019-05-29T23:14:39.831Z,12.40
2019-05-29T23:17:09.848Z,12.39
2019-05-29T23:19:40.449Z,12.36
2019-05-29T23:22:11.231Z,12.33
2019-05-29T23:24:41.313Z,12.31
2019-05-29T23:27:11.865Z,12.31
2019-05-29T23:29:48.891Z,12.29
2019-05-29T23:32:19.367Z,12.27
2019-05-29T23:34:49.395Z,12.25
2019-05-29T23:37:19.245Z,12.24
2019-05-29T23:39:49.234Z,12.23
2019-05-29T23:42:20.564Z,12.22
2019-05-29T23:44:52.120Z,12.20
2019-05-29T23:47:22.137Z,12.20
2019-05-29T23:49:53.468Z,12.20
2019-05-29T23:52:23.503Z,12.21
2019-05-29T23:54:53.848Z,12.23
2019-05-29T23:57:23.951Z,12.25
